Main page
METAR-TAF:

METAR-TAF

Airports :

Tunis, Tunisia

Tunis–Carthage International Airport

latitude: 36-50N, longitude: 010-14E, elevation: 3 m

Current weather observation

The report was made 26 minutes ago, at 07:30 UTC
Wind 5 kt from the West/Southwest, varying between South/Southwest and West
Temperature 9°C
Humidity 66%
Pressure 1019 hPa
Visibility 10 km or more
Scattered clouds at a height of 2300 ft

METAR: DTTA 170730Z 24005KT 200V270 9999 SCT023 09/03 Q1019

Time: 08:56 (07:56 UTC)

Forecast

The report was made 2 hours and 23 minutes ago, at 05:33 UTC
Forecast valid from 17 at 06 UTC to 18 at 06 UTC
Wind 12 kt from the West
Visibility 10 km or more
Scattered clouds at a height of 2300 ft
Temporary
from 17 at 22 UTC to 18 at 06 UTC
Visibility: 3000 m
Few clouds at a height of 2600 ft, Cumulonimbus.
light rain
Becoming
between 17 and 10 UTC
Wind 22 kt from the West

TAF: DTTA 170533Z 1706/1806 27012KT 9999 SCT023 TEMPO 1722/1806 3000 -RA FEW026CB BECMG 1710-712 27022KT

Weather observations and forecasts of more than 4000 airports (METAR and TAF reports).

The available stations are represented by yellow and red dots on the map.

Hover mouse over dot to see the name of the station.

Then click to see weather observations and forecasts.

To change the map : click on the green buttons with a black cross to zoom in, on the green button with a dash to zoom out, or on the green arrows for adjacent maps.


METAR-TAF: